createdAt,value
2022-08-17T00:00:42.631Z,20.20
2022-08-17T00:03:21.112Z,16.27
2022-08-17T00:06:01.242Z,17.67
2022-08-17T00:08:35.442Z,17.88
2022-08-17T00:11:10.962Z,20.15
2022-08-17T00:13:44.052Z,17.13
2022-08-17T00:16:16.203Z,19.95
2022-08-17T00:19:01.552Z,19.95
2022-08-17T00:22:29.989Z,18.83
2022-08-17T00:24:24.495Z,18.35
2022-08-17T00:26:52.713Z,18.67
2022-08-17T00:29:20.368Z,20.60
2022-08-17T00:31:49.779Z,24.05
2022-08-17T00:34:18.561Z,19.25
2022-08-17T00:36:47.097Z,23.50
2022-08-17T00:39:14.930Z,18.00
2022-08-17T00:41:42.850Z,22.08
2022-08-17T00:44:12.144Z,16.67
2022-08-17T00:46:43.191Z,24.85
2022-08-17T00:49:12.923Z,18.17
2022-08-17T00:51:59.515Z,18.60
2022-08-17T00:54:33.939Z,20.75
2022-08-17T00:57:24.858Z,18.90
2022-08-17T01:00:03.762Z,18.75
2022-08-17T01:02:42.711Z,17.90
2022-08-17T01:05:18.582Z,17.77
2022-08-17T01:07:51.269Z,17.77
2022-08-17T01:10:58.995Z,19.33
2022-08-17T01:13:13.819Z,18.00
2022-08-17T01:16:03.155Z,19.23
2022-08-17T01:18:32.248Z,22.77
2022-08-17T01:21:09.586Z,20.08
2022-08-17T01:23:38.089Z,20.13
2022-08-17T01:26:06.556Z,19.15
2022-08-17T01:28:54.309Z,20.70
2022-08-17T01:31:28.056Z,21.45
2022-08-17T01:33:58.686Z,21.17
2022-08-17T01:36:28.635Z,19.73
2022-08-17T01:38:56.849Z,23.25
2022-08-17T01:41:25.200Z,20.92
2022-08-17T01:44:00.495Z,21.98
2022-08-17T01:46:34.861Z,22.98
2022-08-17T01:49:08.814Z,26.13
2022-08-17T01:51:37.673Z,24.38
2022-08-17T01:54:10.619Z,22.75
2022-08-17T01:56:42.689Z,21.17
2022-08-17T01:59:11.912Z,24.83
2022-08-17T02:01:40.352Z,22.23
2022-08-17T02:04:08.670Z,26.17
2022-08-17T02:06:47.083Z,20.40
2022-08-17T02:09:26.094Z,22.58
2022-08-17T02:12:00.022Z,22.40
2022-08-17T02:14:47.715Z,21.55
2022-08-17T02:17:15.223Z,26.85
2022-08-17T02:19:43.440Z,16.92
2022-08-17T02:22:12.113Z,23.63
2022-08-17T02:25:00.454Z,21.45
2022-08-17T02:27:27.578Z,19.92
2022-08-17T02:29:55.684Z,23.65
2022-08-17T02:32:28.459Z,21.77
2022-08-17T02:34:58.272Z,24.13
2022-08-17T02:37:28.308Z,21.27
2022-08-17T02:40:00.673Z,26.73
2022-08-17T02:42:38.465Z,21.92
2022-08-17T02:45:11.405Z,27.00
2022-08-17T02:47:41.386Z,23.30
2022-08-17T02:50:12.016Z,21.23
2022-08-17T02:52:43.997Z,23.83
2022-08-17T02:55:19.398Z,24.70
2022-08-17T02:57:47.944Z,28.88
2022-08-17T03:00:22.233Z,22.25
2022-08-17T03:02:51.501Z,25.98
2022-08-17T03:05:22.319Z,24.13
2022-08-17T03:07:51.444Z,23.83
2022-08-17T03:10:21.662Z,24.38
2022-08-17T03:12:53.621Z,22.17
2022-08-17T03:15:33.512Z,23.00
2022-08-17T03:18:03.675Z,24.50
2022-08-17T03:20:33.688Z,22.23
2022-08-17T03:25:39.256Z,21.48
2022-08-17T03:28:07.940Z,21.17
2022-08-17T03:30:36.543Z,23.88
2022-08-17T03:33:07.500Z,23.05
2022-08-17T03:35:37.709Z,26.30
2022-08-17T03:38:06.463Z,25.23
2022-08-17T03:40:56.290Z,23.60
2022-08-17T03:43:23.510Z,21.85
2022-08-17T03:46:26.970Z,23.17
2022-08-17T03:49:15.716Z,24.42
2022-08-17T03:52:02.384Z,21.58
2022-08-17T03:54:48.694Z,23.90
2022-08-17T03:57:17.118Z,27.15
2022-08-17T03:59:45.721Z,26.02
2022-08-17T04:02:28.590Z,23.77
2022-08-17T04:04:57.531Z,28.05
2022-08-17T04:07:29.116Z,25.77
2022-08-17T04:09:58.477Z,29.20
2022-08-17T04:12:31.434Z,25.55
2022-08-17T04:15:00.200Z,26.95
2022-08-17T04:17:29.362Z,30.40
2022-08-17T04:19:57.128Z,24.02
2022-08-17T04:22:30.712Z,27.08
2022-08-17T04:25:05.626Z,27.75
2022-08-17T04:27:34.031Z,29.48
2022-08-17T04:30:02.319Z,26.77
2022-08-17T04:33:03.493Z,31.92
2022-08-17T04:35:20.896Z,28.17
2022-08-17T04:37:49.162Z,30.83
2022-08-17T04:40:36.356Z,35.90
2022-08-17T04:43:07.982Z,26.15
2022-08-17T04:45:55.238Z,27.15
2022-08-17T04:48:36.605Z,27.73
2022-08-17T04:51:13.476Z,31.52
2022-08-17T04:53:44.738Z,27.95
2022-08-17T04:56:18.883Z,30.27
2022-08-17T04:58:50.540Z,28.27
2022-08-17T05:01:23.312Z,27.45
2022-08-17T05:04:02.385Z,28.02
2022-08-17T05:06:50.787Z,32.28
2022-08-17T05:09:18.849Z,27.48
2022-08-17T05:11:47.405Z,24.92
2022-08-17T05:14:15.602Z,29.80
2022-08-17T05:16:45.860Z,31.08
2022-08-17T05:19:14.140Z,28.58
2022-08-17T05:21:41.857Z,29.83
2022-08-17T05:24:35.369Z,33.13
2022-08-17T05:27:01.397Z,32.25
2022-08-17T05:29:34.464Z,32.50
2022-08-17T05:32:39.439Z,30.20
2022-08-17T05:35:01.600Z,36.22
2022-08-17T05:37:29.542Z,34.67
2022-08-17T05:39:57.979Z,30.00
2022-08-17T05:42:25.912Z,30.65
2022-08-17T05:44:57.926Z,33.83
2022-08-17T05:47:26.905Z,34.58
2022-08-17T05:49:55.975Z,33.00
2022-08-17T05:52:40.284Z,30.70
2022-08-17T05:55:11.186Z,35.92
2022-08-17T05:57:42.375Z,30.50
2022-08-17T06:00:21.269Z,34.88
2022-08-17T06:03:11.943Z,30.80
2022-08-17T06:06:31.417Z,34.15
2022-08-17T06:09:25.801Z,32.13
2022-08-17T06:11:58.913Z,34.40
2022-08-17T06:14:41.054Z,35.42
2022-08-17T06:17:14.283Z,36.40
2022-08-17T06:22:28.180Z,38.85
2022-08-17T06:25:10.231Z,39.30
2022-08-17T06:27:49.081Z,37.33
2022-08-17T06:30:35.739Z,36.45
2022-08-17T06:33:23.914Z,35.63
2022-08-17T06:36:02.973Z,36.63
2022-08-17T06:39:19.946Z,43.60
2022-08-17T06:43:02.136Z,41.78
2022-08-17T06:45:08.468Z,42.60
2022-08-17T06:48:07.229Z,46.38
2022-08-17T06:50:40.743Z,47.45
2022-08-17T06:53:35.588Z,50.08
2022-08-17T06:56:12.208Z,58.53
2022-08-17T06:58:44.076Z,59.22
2022-08-17T07:01:19.720Z,60.47
2022-08-17T07:04:12.971Z,52.08
2022-08-17T07:06:47.387Z,52.85
2022-08-17T07:09:31.550Z,53.40
2022-08-17T07:12:09.995Z,56.15
2022-08-17T07:14:53.492Z,53.80
2022-08-17T07:17:46.823Z,58.92
2022-08-17T07:20:15.148Z,52.72
2022-08-17T07:22:54.797Z,57.53
2022-08-17T07:25:28.901Z,62.08
2022-08-17T07:28:01.112Z,65.78
2022-08-17T07:30:50.502Z,64.03
2022-08-17T07:33:24.628Z,60.80
2022-08-17T07:35:53.445Z,70.40
2022-08-17T07:38:26.739Z,60.42
2022-08-17T07:41:02.770Z,58.95
2022-08-17T07:43:39.881Z,62.70
2022-08-17T07:47:00.634Z,60.50
2022-08-17T07:49:31.806Z,69.00
2022-08-17T07:54:58.250Z,74.05
2022-08-17T07:57:35.806Z,77.65
2022-08-17T08:00:17.030Z,74.00
2022-08-17T08:02:58.624Z,76.63
2022-08-17T08:05:49.400Z,80.60
2022-08-17T08:08:44.040Z,79.00
2022-08-17T08:11:15.816Z,78.82
2022-08-17T08:13:45.752Z,84.10
2022-08-17T08:16:21.638Z,84.20
2022-08-17T08:18:55.954Z,77.18
2022-08-17T08:21:47.247Z,80.60
2022-08-17T08:24:30.735Z,76.97
2022-08-17T08:27:27.216Z,77.78
2022-08-17T08:30:12.462Z,88.40
2022-08-17T08:32:48.087Z,90.88
2022-08-17T08:35:33.200Z,89.93
2022-08-17T08:38:01.327Z,81.72
2022-08-17T08:41:11.157Z,88.93
2022-08-17T08:43:53.462Z,94.35
2022-08-17T08:46:40.827Z,85.50
2022-08-17T08:49:17.730Z,88.82
2022-08-17T08:51:59.457Z,85.05
2022-08-17T08:55:03.358Z,79.57
2022-08-17T08:57:43.268Z,67.18
2022-08-17T09:00:17.594Z,69.65
2022-08-17T09:03:17.896Z,63.88
2022-08-17T09:06:37.744Z,58.25
2022-08-17T09:09:20.595Z,57.22
2022-08-17T09:12:11.070Z,60.25
2022-08-17T09:14:51.954Z,62.78
2022-08-17T09:17:30.086Z,52.72
2022-08-17T09:20:03.302Z,43.75
2022-08-17T09:22:37.203Z,51.20
2022-08-17T09:25:22.115Z,44.72
2022-08-17T09:28:00.666Z,49.08
2022-08-17T09:30:53.338Z,44.95
2022-08-17T09:33:28.049Z,40.00
2022-08-17T09:36:16.564Z,37.22
2022-08-17T09:38:53.402Z,42.10
2022-08-17T09:42:01.580Z,44.58
2022-08-17T09:44:35.001Z,45.10
2022-08-17T09:47:18.695Z,37.92
2022-08-17T09:49:51.187Z,43.83
2022-08-17T09:52:25.497Z,44.28
2022-08-17T09:54:56.044Z,38.90
2022-08-17T09:57:32.307Z,47.53
2022-08-17T10:00:26.356Z,32.50
2022-08-17T10:03:24.175Z,40.95
2022-08-17T10:06:02.785Z,36.97
2022-08-17T10:08:52.773Z,38.63
2022-08-17T10:12:03.044Z,38.53
2022-08-17T10:14:38.109Z,38.35
2022-08-17T10:17:15.731Z,32.15
2022-08-17T10:19:57.516Z,31.70
2022-08-17T10:23:17.743Z,31.73
2022-08-17T10:25:56.115Z,33.67
2022-08-17T10:28:30.408Z,33.83
2022-08-17T10:31:33.276Z,37.00
2022-08-17T10:34:28.586Z,37.25
2022-08-17T10:37:08.507Z,37.53
2022-08-17T10:39:58.032Z,31.42
2022-08-17T10:42:38.356Z,36.20
2022-08-17T10:45:29.581Z,33.72
2022-08-17T10:48:07.446Z,36.78
2022-08-17T10:50:57.699Z,36.40
2022-08-17T10:53:32.197Z,31.17
2022-08-17T10:56:12.314Z,33.53
2022-08-17T10:58:56.413Z,30.17
2022-08-17T11:01:38.214Z,31.10
2022-08-17T11:04:37.368Z,31.75
2022-08-17T11:07:28.192Z,28.88
2022-08-17T11:10:01.794Z,34.00
2022-08-17T11:13:05.727Z,27.95
2022-08-17T11:16:02.354Z,31.23
2022-08-17T11:19:10.863Z,30.90
2022-08-17T11:21:56.338Z,28.00
2022-08-17T11:24:35.543Z,33.80
2022-08-17T11:27:12.557Z,29.25
2022-08-17T11:30:02.856Z,24.08
2022-08-17T11:32:47.344Z,26.23
2022-08-17T11:35:21.744Z,25.20
2022-08-17T11:38:17.375Z,27.85
2022-08-17T11:41:03.285Z,23.60
2022-08-17T11:43:56.619Z,25.17
2022-08-17T11:46:51.848Z,24.10
2022-08-17T11:49:58.747Z,28.38
2022-08-17T11:52:38.348Z,28.02
2022-08-17T11:55:33.872Z,33.15
2022-08-17T11:58:02.669Z,28.40
2022-08-17T12:00:45.647Z,32.95
2022-08-17T12:03:34.728Z,29.15
2022-08-17T12:08:43.730Z,25.73
2022-08-17T12:11:58.767Z,22.92
2022-08-17T12:14:32.244Z,27.67
2022-08-17T12:17:14.274Z,27.98
2022-08-17T12:19:55.061Z,28.13
2022-08-17T12:22:29.364Z,25.95
2022-08-17T12:25:13.795Z,25.92
2022-08-17T12:28:05.036Z,26.38
2022-08-17T12:30:34.926Z,20.77
2022-08-17T12:33:02.977Z,26.73
2022-08-17T12:35:35.429Z,23.50
2022-08-17T12:38:06.523Z,18.88
2022-08-17T12:40:58.151Z,23.08
2022-08-17T12:43:29.326Z,20.77
2022-08-17T12:46:13.278Z,19.50
2022-08-17T12:48:58.808Z,25.45
2022-08-17T12:51:29.210Z,22.27
2022-08-17T12:53:57.527Z,24.05
2022-08-17T12:56:25.572Z,22.15
2022-08-17T12:58:54.583Z,22.85
2022-08-17T13:01:25.190Z,21.25
2022-08-17T13:03:58.053Z,20.67
2022-08-17T13:06:35.496Z,17.58
2022-08-17T13:09:13.812Z,17.80
2022-08-17T13:11:56.678Z,19.10
2022-08-17T13:14:25.532Z,15.38
2022-08-17T13:17:00.530Z,18.45
2022-08-17T13:19:40.752Z,13.98
2022-08-17T13:22:15.638Z,14.05
2022-08-17T13:24:54.591Z,15.65
2022-08-17T13:27:26.551Z,17.63
2022-08-17T13:30:06.025Z,15.43
2022-08-17T13:32:43.018Z,17.23
2022-08-17T13:35:39.961Z,17.48
2022-08-17T13:38:35.702Z,15.38
2022-08-17T13:41:08.107Z,15.73
2022-08-17T13:43:53.751Z,13.65
2022-08-17T13:46:29.922Z,11.73
2022-08-17T13:49:06.937Z,13.38
2022-08-17T13:51:42.428Z,10.90
2022-08-17T13:54:37.359Z,9.57
2022-08-17T13:57:05.590Z,8.50
2022-08-17T13:59:53.762Z,8.68
2022-08-17T14:04:57.085Z,7.22
2022-08-17T14:07:38.616Z,7.18
2022-08-17T14:10:17.543Z,7.97
2022-08-17T14:12:46.290Z,8.50
2022-08-17T14:15:23.217Z,5.60
2022-08-17T14:17:52.877Z,7.13
2022-08-17T14:20:22.396Z,6.65
2022-08-17T14:22:53.441Z,12.82
2022-08-17T14:25:25.831Z,6.68
2022-08-17T14:27:55.258Z,7.57
2022-08-17T14:32:54.278Z,7.88
2022-08-17T14:35:24.009Z,6.53
2022-08-17T14:37:53.224Z,8.45
2022-08-17T14:40:25.221Z,7.68
2022-08-17T14:42:55.389Z,6.95
2022-08-17T14:45:30.132Z,7.97
2022-08-17T14:48:04.514Z,7.47
2022-08-17T14:50:35.457Z,8.18
2022-08-17T14:53:08.373Z,6.82
2022-08-17T14:55:39.858Z,10.10
2022-08-17T14:58:09.352Z,10.00
2022-08-17T15:03:07.229Z,6.72
2022-08-17T15:05:39.844Z,8.57
2022-08-17T15:08:07.830Z,8.88
2022-08-17T15:10:37.033Z,8.90
2022-08-17T15:13:06.268Z,10.00
2022-08-17T15:15:34.756Z,10.30
2022-08-17T15:18:03.368Z,8.88
2022-08-17T15:20:31.921Z,12.00
2022-08-17T15:23:00.469Z,8.07
2022-08-17T15:25:32.715Z,8.77
2022-08-17T15:28:01.762Z,8.27
2022-08-17T15:30:30.669Z,11.85
2022-08-17T15:33:00.593Z,9.70
2022-08-17T15:35:32.555Z,7.60
2022-08-17T15:38:10.667Z,7.53
2022-08-17T15:40:43.574Z,7.57
2022-08-17T15:43:23.325Z,6.57
2022-08-17T15:46:11.144Z,8.82
2022-08-17T15:48:42.431Z,7.75
2022-08-17T15:51:31.027Z,8.63
2022-08-17T15:54:19.325Z,7.15
2022-08-17T15:56:51.444Z,8.07
2022-08-17T15:59:19.797Z,6.15
2022-08-17T16:03:01.456Z,6.63
2022-08-17T16:04:36.417Z,8.23
2022-08-17T16:07:08.516Z,7.30
2022-08-17T16:09:37.890Z,9.20
2022-08-17T16:14:49.438Z,10.10
2022-08-17T16:17:39.867Z,6.55
2022-08-17T16:20:06.723Z,7.05
2022-08-17T16:22:45.133Z,11.10
2022-08-17T16:25:53.026Z,6.88
2022-08-17T16:28:23.538Z,7.70
2022-08-17T16:31:05.843Z,7.20
2022-08-17T16:33:39.406Z,7.13
2022-08-17T16:36:08.205Z,6.72
2022-08-17T16:38:36.473Z,5.68
2022-08-17T16:41:05.796Z,7.10
2022-08-17T16:43:34.731Z,8.60
2022-08-17T16:46:03.108Z,8.68
2022-08-17T16:48:31.035Z,9.40
2022-08-17T16:51:03.164Z,10.15
2022-08-17T16:53:32.723Z,10.50
2022-08-17T16:56:03.581Z,9.23
2022-08-17T16:58:31.237Z,6.90
2022-08-17T17:01:00.004Z,9.98
2022-08-17T17:03:30.785Z,8.32
2022-08-17T17:06:06.366Z,8.60
2022-08-17T17:08:51.077Z,7.20
2022-08-17T17:11:27.244Z,8.25
2022-08-17T17:14:01.643Z,9.60
2022-08-17T17:17:01.788Z,10.50
2022-08-17T17:19:38.660Z,9.95
2022-08-17T17:22:22.514Z,9.68
2022-08-17T17:25:11.733Z,11.15
2022-08-17T17:28:16.790Z,13.00
2022-08-17T17:31:05.755Z,10.88
2022-08-17T17:34:00.515Z,10.82
2022-08-17T17:36:47.501Z,11.35
2022-08-17T17:39:37.094Z,10.32
2022-08-17T17:42:08.908Z,11.02
2022-08-17T17:44:54.760Z,11.23
2022-08-17T17:47:31.081Z,13.48
2022-08-17T17:50:02.425Z,10.68
2022-08-17T17:52:47.547Z,12.18
2022-08-17T17:55:37.766Z,14.90
2022-08-17T17:58:44.258Z,13.82
2022-08-17T18:01:29.034Z,12.40
2022-08-17T18:04:30.947Z,15.05
2022-08-17T18:07:23.722Z,15.18
2022-08-17T18:10:29.688Z,15.85
2022-08-17T18:13:08.049Z,15.95
2022-08-17T18:15:54.098Z,19.30
2022-08-17T18:18:38.028Z,14.88
2022-08-17T18:21:19.691Z,15.50
2022-08-17T18:23:59.644Z,16.77
2022-08-17T18:26:33.950Z,15.05
2022-08-17T18:29:12.502Z,17.25
2022-08-17T18:31:40.422Z,14.63
2022-08-17T18:37:26.828Z,17.27
2022-08-17T18:39:55.414Z,17.35
2022-08-17T18:42:27.438Z,16.75
2022-08-17T18:44:56.267Z,19.27
2022-08-17T18:47:28.554Z,17.58
2022-08-17T18:50:24.912Z,17.55
2022-08-17T18:52:55.377Z,22.52
2022-08-17T18:55:29.371Z,18.27
2022-08-17T18:58:13.235Z,19.25
2022-08-17T19:00:43.655Z,21.88
2022-08-17T19:03:20.906Z,19.30
2022-08-17T19:06:16.070Z,18.60
2022-08-17T19:08:44.519Z,20.00
2022-08-17T19:11:20.030Z,19.25
2022-08-17T19:14:02.266Z,24.88
2022-08-17T19:16:34.542Z,21.00
2022-08-17T19:19:17.177Z,15.68
2022-08-17T19:21:56.264Z,19.02
2022-08-17T19:24:26.740Z,19.70
2022-08-17T19:27:00.731Z,16.23
2022-08-17T19:30:21.174Z,17.10
2022-08-17T19:32:49.058Z,17.88
2022-08-17T19:35:20.249Z,15.55
2022-08-17T19:37:54.301Z,17.25
2022-08-17T19:43:48.228Z,16.58
2022-08-17T19:49:33.253Z,13.82
2022-08-17T19:52:52.809Z,15.75
2022-08-17T19:55:43.967Z,13.40
2022-08-17T19:58:24.375Z,15.82
2022-08-17T20:00:54.462Z,15.88
2022-08-17T20:03:45.378Z,16.65
2022-08-17T20:06:14.274Z,15.95
2022-08-17T20:09:04.034Z,15.98
2022-08-17T20:11:43.610Z,18.02
2022-08-17T20:14:20.578Z,15.88
2022-08-17T20:16:48.807Z,17.98
2022-08-17T20:19:35.164Z,17.60
2022-08-17T20:22:03.529Z,18.27
2022-08-17T20:24:40.343Z,17.67
2022-08-17T20:27:31.576Z,17.95
2022-08-17T20:30:13.551Z,18.27
2022-08-17T20:32:55.869Z,19.95
2022-08-17T20:35:33.458Z,19.48
2022-08-17T20:38:07.824Z,20.80
2022-08-17T20:41:01.416Z,20.13
2022-08-17T20:43:37.178Z,17.85
2022-08-17T20:46:23.898Z,19.92
2022-08-17T20:48:57.230Z,21.05
2022-08-17T20:51:31.590Z,19.92
2022-08-17T20:54:08.352Z,21.52
2022-08-17T20:56:46.535Z,20.10
2022-08-17T20:59:28.766Z,22.48
2022-08-17T21:02:08.943Z,21.73
2022-08-17T21:04:54.614Z,23.90
2022-08-17T21:09:52.420Z,22.80
2022-08-17T21:12:42.047Z,20.90
2022-08-17T21:15:23.259Z,20.35
2022-08-17T21:18:06.860Z,19.45
2022-08-17T21:21:02.505Z,22.33
2022-08-17T21:24:02.285Z,18.80
2022-08-17T21:26:50.781Z,24.25
2022-08-17T21:29:32.399Z,22.02
2022-08-17T21:34:36.455Z,22.10
2022-08-17T21:37:23.278Z,20.70
2022-08-17T21:40:11.462Z,24.58
2022-08-17T21:42:47.867Z,21.42
2022-08-17T21:45:25.386Z,21.77
2022-08-17T21:48:24.112Z,21.92
2022-08-17T21:51:03.814Z,20.08
2022-08-17T21:53:45.560Z,21.30
2022-08-17T21:56:40.699Z,17.45
2022-08-17T21:59:24.453Z,19.75
2022-08-17T22:02:01.250Z,21.02
2022-08-17T22:04:33.421Z,20.30
2022-08-17T22:07:04.482Z,21.20
2022-08-17T22:09:43.384Z,28.48
2022-08-17T22:12:26.618Z,20.20
2022-08-17T22:15:06.002Z,24.15
2022-08-17T22:17:45.065Z,19.98
2022-08-17T22:20:21.279Z,21.15
2022-08-17T22:23:07.557Z,21.42
2022-08-17T22:25:41.873Z,18.75
2022-08-17T22:28:12.242Z,20.30
2022-08-17T22:30:59.371Z,18.00
2022-08-17T22:33:43.148Z,18.92
2022-08-17T22:36:34.155Z,21.63
2022-08-17T22:39:10.956Z,17.50
2022-08-17T22:41:41.445Z,27.80
2022-08-17T22:44:24.524Z,19.55
2022-08-17T22:46:55.679Z,26.38
2022-08-17T22:49:38.758Z,21.50
2022-08-17T22:52:56.620Z,22.42
2022-08-17T22:55:44.340Z,20.42
2022-08-17T22:58:38.122Z,19.02
2022-08-17T23:01:26.368Z,20.20
2022-08-17T23:04:07.702Z,19.35
2022-08-17T23:06:37.597Z,20.10
2022-08-17T23:09:07.184Z,21.20
2022-08-17T23:11:49.143Z,19.08
2022-08-17T23:14:20.613Z,20.67
2022-08-17T23:16:51.149Z,20.20
2022-08-17T23:19:22.018Z,16.95
2022-08-17T23:21:52.685Z,14.90
2022-08-17T23:24:27.702Z,18.08
2022-08-17T23:26:57.363Z,19.50
2022-08-17T23:29:29.565Z,16.30
2022-08-17T23:32:00.099Z,22.02
2022-08-17T23:34:28.866Z,13.27
2022-08-17T23:36:57.389Z,16.02
2022-08-17T23:39:28.076Z,15.55
2022-08-17T23:41:58.435Z,17.33
2022-08-17T23:44:27.546Z,22.83
2022-08-17T23:46:55.389Z,17.17
2022-08-17T23:49:25.706Z,14.63
2022-08-17T23:51:56.831Z,14.82
2022-08-17T23:54:29.346Z,16.90
2022-08-17T23:56:56.927Z,19.15
2022-08-17T23:59:24.667Z,14.38
